Wetterdaten: Woche 19.12.11 - 25.12.11 (KW51)
Datum Zeit Temp. A. Feuchte A. Luftdruck Regen Wind Richtung Taupunkt Windchill Windben
19.12.2011 00:00 0,2 C 73 % 1016,6 hPa 0,0 l/m 0,0 km/h N -4,1 C 0,2 C 1,6 km/h
19.12.2011 01:00 -0,8 C 76 % 1016,8 hPa 0,0 l/m 0,1 km/h N -4,4 C -0,8 C 1,6 km/h
19.12.2011 02:00 -1,3 C 79 % 1017,6 hPa 0,0 l/m 0,0 km/h N -4,6 C -1,3 C 1,6 km/h
19.12.2011 03:00 -1,9 C 80 % 1017,6 hPa 0,0 l/m 0,0 km/h N -4,9 C -1,9 C 1,2 km/h
19.12.2011 04:00 -2,4 C 81 % 1017,6 hPa 0,0 l/m 0,0 km/h N -5,2 C -2,4 C 1,2 km/h
19.12.2011 05:00 -2,9 C 82 % 1017,7 hPa 0,0 l/m 0,0 km/h N -5,5 C -2,9 C 1,2 km/h
19.12.2011 06:00 -2,5 C 84 % 1017,8 hPa 0,0 l/m 0,0 km/h N -4,8 C -2,5 C 0,8 km/h
19.12.2011 07:00 -1,9 C 85 % 1017,7 hPa 0,0 l/m 0,0 km/h N -4,2 C -1,9 C 0,4 km/h
19.12.2011 08:00 -1,4 C 85 % 1018,5 hPa 0,0 l/m 0,1 km/h NW -3,5 C -1,4 C 1,6 km/h
19.12.2011 09:00 0,7 C 83 % 1018,7 hPa 0,0 l/m 2,3 km/h NW -1,8 C 0,7 C 9,3 km/h
19.12.2011 10:00 2,0 C 78 % 1018,9 hPa 0,0 l/m 3,3 km/h N-NW -1,5 C 2,0 C 10,1 km/h
19.12.2011 11:00 2,5 C 75 % 1018,7 hPa 0,0 l/m 5,1 km/h NW -1,4 C 2,4 C 12,5 km/h
19.12.2011 12:00 2,8 C 75 % 1018,5 hPa 0,0 l/m 5,0 km/h NW -1,2 C 2,8 C 13,7 km/h
19.12.2011 13:00 3,0 C 73 % 1018,3 hPa 0,0 l/m 5,3 km/h N-NW -1,3 C 3,0 C 14,1 km/h
19.12.2011 14:00 2,7 C 73 % 1018,2 hPa 0,0 l/m 5,1 km/h N-NW -1,7 C 2,7 C 14,1 km/h
19.12.2011 15:00 2,3 C 73 % 1018,4 hPa 0,0 l/m 2,9 km/h NW -2,0 C 2,3 C 10,9 km/h
19.12.2011 16:00 1,6 C 73 % 1018,7 hPa 0,0 l/m 1,0 km/h N -2,7 C 1,6 C 5,2 km/h
19.12.2011 17:00 1,4 C 72 % 1019,0 hPa 0,0 l/m 1,9 km/h NW -3,1 C 1,4 C 9,3 km/h
19.12.2011 18:00 1,5 C 73 % 1019,0 hPa 0,0 l/m 4,1 km/h NW -2,9 C 1,5 C 11,3 km/h
19.12.2011 19:00 1,3 C 74 % 1019,2 hPa 0,0 l/m 4,8 km/h N-NW -2,8 C 1,3 C 15,7 km/h
19.12.2011 20:00 0,8 C 75 % 1019,2 hPa 0,0 l/m 4,9 km/h NW -3,2 C 0,8 C 17,3 km/h
19.12.2011 21:00 0,4 C 73 % 1019,3 hPa 0,0 l/m 5,8 km/h N-NW -3,8 C 0,3 C 18,5 km/h
19.12.2011 22:00 0,1 C 74 % 1019,4 hPa 0,0 l/m 5,2 km/h N-NW -4,0 C 0,1 C 14,9 km/h
19.12.2011 23:00 -0,3 C 74 % 1019,3 hPa 0,0 l/m 4,3 km/h N-NW -4,3 C -0,3 C 13,3 km/h
20.12.2011 00:00 -0,6 C 73 % 1018,9 hPa 0,0 l/m 4,8 km/h N-NW -5,0 C -0,6 C 13,7 km/h
20.12.2011 01:00 -0,8 C 71 % 1018,6 hPa 0,0 l/m 3,5 km/h N-NW -5,4 C -0,8 C 11,7 km/h
20.12.2011 02:00 -0,7 C 69 % 1018,3 hPa 0,0 l/m 4,6 km/h N-NW -5,8 C -0,7 C 14,1 km/h
20.12.2011 03:00 -0,8 C 70 % 1017,9 hPa 0,0 l/m 4,3 km/h N-NW -5,6 C -0,8 C 13,3 km/h
20.12.2011 04:00 -0,7 C 70 % 1017,6 hPa 0,0 l/m 5,5 km/h NW -5,6 C -0,8 C 17,3 km/h
20.12.2011 05:00 -0,7 C 70 % 1017,2 hPa 0,0 l/m 3,6 km/h W-NW -5,4 C -0,7 C 10,4 km/h
20.12.2011 06:00 -0,8 C 73 % 1016,9 hPa 0,0 l/m 3,0 km/h N-NW -5,1 C -0,8 C 10,5 km/h
20.12.2011 07:00 -1,4 C 74 % 1016,8 hPa 0,0 l/m 0,8 km/h N -5,5 C -1,4 C 4,0 km/h
20.12.2011 08:00 -2,1 C 76 % 1016,5 hPa 0,0 l/m 0,3 km/h N -5,8 C -2,1 C 2,8 km/h
20.12.2011 09:00 -1,1 C 79 % 1016,2 hPa 0,0 l/m 1,3 km/h NW -4,4 C -1,1 C 6,0 km/h
20.12.2011 10:00 0,3 C 74 % 1015,4 hPa 0,0 l/m 3,2 km/h NW -3,9 C 0,3 C 8,4 km/h
20.12.2011 11:00 1,3 C 64 % 1014,4 hPa 0,0 l/m 2,6 km/h N-NO -4,8 C 1,3 C 8,0 km/h
20.12.2011 12:00 1,8 C 58 % 1013,3 hPa 0,0 l/m 2,1 km/h NW -5,5 C 1,8 C 8,6 km/h
20.12.2011 13:00 2,0 C 58 % 1012,4 hPa 0,0 l/m 1,6 km/h W-SW -5,5 C 2,0 C 8,0 km/h
20.12.2011 14:00 2,0 C 57 % 1012,0 hPa 0,0 l/m 0,8 km/h N -5,7 C 2,0 C 4,8 km/h
20.12.2011 15:00 1,6 C 58 % 1011,8 hPa 0,0 l/m 0,2 km/h N -5,8 C 1,6 C 2,4 km/h
20.12.2011 16:00 0,3 C 61 % 1011,9 hPa 0,0 l/m 0,0 km/h N -6,3 C 0,3 C 0,4 km/h
20.12.2011 17:00 -2,3 C 70 % 1012,2 hPa 0,0 l/m 0,0 km/h N -7,1 C -2,3 C 0,0 km/h
20.12.2011 18:00 -3,9 C 75 % 1012,4 hPa 0,0 l/m 0,0 km/h N -7,8 C -3,9 C 0,0 km/h
20.12.2011 19:00 -5,0 C 77 % 1012,7 hPa 0,0 l/m 0,0 km/h N -8,4 C -5,0 C 0,0 km/h
20.12.2011 20:00 -5,5 C 79 % 1013,1 hPa 0,0 l/m 0,0 km/h N -8,6 C -5,5 C 0,0 km/h
20.12.2011 21:00 -5,8 C 80 % 1013,4 hPa 0,0 l/m 0,0 km/h N -8,6 C -5,8 C 1,2 km/h
20.12.2011 22:00 -5,8 C 82 % 1013,5 hPa 0,0 l/m 0,0 km/h N -8,4 C -5,8 C 0,0 km/h
20.12.2011 23:00 -5,5 C 83 % 1013,3 hPa 0,0 l/m 0,1 km/h N -7,9 C -5,5 C 1,6 km/h
21.12.2011 00:00 -4,3 C 85 % 1013,0 hPa 0,0 l/m 0,0 km/h N -6,5 C -4,3 C 0,8 km/h
21.12.2011 01:00 -3,8 C 84 % 1013,0 hPa 0,0 l/m 0,0 km/h N -6,1 C -3,8 C 1,6 km/h
21.12.2011 02:00 -3,6 C 84 % 1013,1 hPa 0,0 l/m 0,1 km/h N -6,0 C -3,6 C 2,0 km/h
21.12.2011 03:00 -2,8 C 84 % 1013,2 hPa 0,0 l/m 0,2 km/h N -5,2 C -2,8 C 3,2 km/h
21.12.2011 04:00 -2,4 C 83 % 1013,2 hPa 0,0 l/m 0,2 km/h N -4,8 C -2,4 C 3,6 km/h
21.12.2011 05:00 -0,4 C 85 % 1013,2 hPa 0,0 l/m 2,2 km/h W-SW -2,6 C -0,4 C 12,9 km/h
21.12.2011 06:00 1,9 C 84 % 1012,7 hPa 0,5 l/m 4,7 km/h SW -0,5 C 1,8 C 20,5 km/h
21.12.2011 07:00 2,6 C 84 % 1012,6 hPa 0,3 l/m 5,5 km/h W 0,1 C 2,5 C 23,7 km/h
21.12.2011 08:00 3,0 C 83 % 1012,8 hPa 0,0 l/m 6,9 km/h W-NW 0,3 C 2,5 C 22,9 km/h
21.12.2011 09:00 3,3 C 81 % 1012,9 hPa 0,5 l/m 10,3 km/h NW 0,4 C 0,1 C 30,2 km/h
21.12.2011 10:00 3,5 C 82 % 1013,2 hPa 0,0 l/m 10,8 km/h W-SW 0,7 C -0,1 C 27,0 km/h
21.12.2011 11:00 3,9 C 79 % 1013,4 hPa 0,0 l/m 9,6 km/h W 0,6 C 1,2 C 27,8 km/h
21.12.2011 12:00 4,0 C 78 % 1013,4 hPa 0,3 l/m 9,1 km/h W 0,5 C 1,7 C 26,5 km/h
21.12.2011 13:00 4,2 C 77 % 1013,3 hPa 0,0 l/m 12,1 km/h NW 0,4 C -0,2 C 29,0 km/h
21.12.2011 14:00 4,6 C 74 % 1012,9 hPa 0,0 l/m 13,8 km/h W 0,3 C -0,7 C 33,4 km/h
21.12.2011 15:00 4,4 C 74 % 1013,5 hPa 0,0 l/m 13,8 km/h W-NW 0,2 C -1,0 C 31,4 km/h
21.12.2011 16:00 3,5 C 80 % 1014,1 hPa 0,0 l/m 11,2 km/h W-NW 0,3 C -0,5 C 27,8 km/h
21.12.2011 17:00 3,3 C 80 % 1014,6 hPa 0,3 l/m 8,8 km/h W 0,2 C 1,2 C 24,9 km/h
21.12.2011 18:00 3,1 C 82 % 1014,8 hPa 0,0 l/m 8,5 km/h W 0,3 C 1,2 C 26,6 km/h
21.12.2011 19:00 3,0 C 81 % 1015,0 hPa 0,0 l/m 9,8 km/h W-NW -0,0 C 0,1 C 25,4 km/h
21.12.2011 20:00 2,9 C 80 % 1015,7 hPa 0,0 l/m 9,4 km/h W-SW -0,2 C 0,2 C 27,0 km/h
21.12.2011 21:00 2,5 C 83 % 1016,4 hPa 0,8 l/m 6,2 km/h N-NW 0,0 C 2,2 C 20,1 km/h
21.12.2011 22:00 2,3 C 84 % 1017,0 hPa 0,0 l/m 4,1 km/h N-NW -0,1 C 2,3 C 16,5 km/h
21.12.2011 23:00 2,3 C 83 % 1017,6 hPa 0,0 l/m 2,5 km/h W-NW -0,2 C 2,3 C 10,1 km/h
22.12.2011 00:00 2,4 C 83 % 1018,0 hPa 0,0 l/m 3,2 km/h NW -0,2 C 2,4 C 12,1 km/h
22.12.2011 01:00 2,4 C 83 % 1018,3 hPa 0,3 l/m 3,5 km/h NW -0,2 C 2,4 C 12,1 km/h
22.12.2011 02:00 2,2 C 84 % 1018,6 hPa 0,0 l/m 5,3 km/h NW -0,3 C 2,2 C 16,1 km/h
22.12.2011 03:00 2,5 C 83 % 1019,2 hPa 0,0 l/m 6,2 km/h NW -0,0 C 2,2 C 19,3 km/h
22.12.2011 04:00 2,6 C 84 % 1019,7 hPa 0,0 l/m 4,9 km/h NW 0,1 C 2,6 C 16,9 km/h
22.12.2011 05:00 2,6 C 84 % 1020,3 hPa 0,0 l/m 5,2 km/h NW 0,2 C 2,6 C 16,1 km/h
22.12.2011 06:00 2,5 C 83 % 1021,2 hPa 0,0 l/m 4,9 km/h N-NO -0,0 C 2,5 C 16,9 km/h
22.12.2011 07:00 2,4 C 85 % 1021,8 hPa 0,0 l/m 4,0 km/h NW 0,2 C 2,4 C 13,3 km/h
22.12.2011 08:00 2,5 C 84 % 1022,4 hPa 0,0 l/m 3,4 km/h NW 0,1 C 2,5 C 9,7 km/h
22.12.2011 09:00 3,0 C 84 % 1023,0 hPa 0,0 l/m 5,5 km/h N-NW 0,5 C 3,0 C 17,7 km/h
22.12.2011 10:00 3,6 C 82 % 1023,1 hPa 0,0 l/m 5,7 km/h W-NW 0,7 C 3,5 C 17,3 km/h
22.12.2011 11:00 4,1 C 80 % 1023,0 hPa 0,0 l/m 5,8 km/h W-NW 0,9 C 4,1 C 17,7 km/h
22.12.2011 12:00 4,3 C 79 % 1022,7 hPa 0,0 l/m 6,1 km/h NW 0,9 C 4,2 C 16,9 km/h
22.12.2011 13:00 4,6 C 78 % 1022,6 hPa 0,0 l/m 5,9 km/h NW 1,0 C 4,3 C 16,9 km/h
22.12.2011 14:00 4,6 C 76 % 1022,6 hPa 0,0 l/m 4,9 km/h W-NW 0,8 C 4,6 C 14,1 km/h
22.12.2011 15:00 4,0 C 76 % 1022,5 hPa 0,0 l/m 3,1 km/h W-SW 0,1 C 4,0 C 12,1 km/h
22.12.2011 16:00 3,6 C 77 % 1022,8 hPa 0,0 l/m 2,0 km/h NW -0,0 C 3,6 C 7,6 km/h
22.12.2011 17:00 3,0 C 77 % 1022,9 hPa 0,0 l/m 0,6 km/h N -0,6 C 3,0 C 4,4 km/h
22.12.2011 18:00 1,5 C 78 % 1023,4 hPa 0,0 l/m 0,0 km/h N -2,0 C 1,5 C 0,8 km/h
22.12.2011 19:00 -0,3 C 80 % 1023,9 hPa 0,0 l/m 0,0 km/h N -3,3 C -0,3 C 0,0 km/h
22.12.2011 20:00 -1,3 C 82 % 1024,1 hPa 0,0 l/m 0,0 km/h N -3,9 C -1,3 C 1,2 km/h
22.12.2011 21:00 -1,3 C 84 % 1024,1 hPa 0,0 l/m 0,1 km/h N -3,6 C -1,3 C 1,2 km/h
22.12.2011 22:00 -0,8 C 85 % 1024,1 hPa 0,0 l/m 0,0 km/h N -2,9 C -0,8 C 0,8 km/h
22.12.2011 23:00 -0,4 C 85 % 1024,3 hPa 0,0 l/m 0,0 km/h N -2,6 C -0,4 C 0,0 km/h
23.12.2011 00:00 -0,3 C 85 % 1024,1 hPa 0,0 l/m 0,0 km/h N -2,5 C -0,3 C 0,4 km/h
23.12.2011 01:00 0,1 C 84 % 1023,9 hPa 0,0 l/m 0,0 km/h N -2,2 C 0,1 C 0,8 km/h
23.12.2011 02:00 0,3 C 84 % 1024,4 hPa 0,0 l/m 0,0 km/h N -2,0 C 0,3 C 0,0 km/h
23.12.2011 03:00 0,6 C 84 % 1024,4 hPa 0,0 l/m 0,0 km/h N -1,8 C 0,6 C 0,0 km/h
23.12.2011 04:00 0,5 C 84 % 1024,4 hPa 0,0 l/m 0,0 km/h N -1,9 C 0,5 C 0,0 km/h
23.12.2011 05:00 0,7 C 84 % 1024,5 hPa 0,0 l/m 0,0 km/h N -1,7 C 0,7 C 0,4 km/h
23.12.2011 06:00 0,9 C 84 % 1024,5 hPa 0,0 l/m 0,0 km/h N -1,5 C 0,9 C 0,0 km/h
23.12.2011 07:00 1,2 C 84 % 1024,8 hPa 0,5 l/m 0,0 km/h N -1,3 C 1,2 C 0,0 km/h
23.12.2011 08:00 1,5 C 83 % 1025,1 hPa 0,0 l/m 0,0 km/h N -1,1 C 1,5 C 0,0 km/h
23.12.2011 09:00 2,3 C 82 % 1025,2 hPa 0,5 l/m 0,0 km/h N -0,5 C 2,3 C 0,8 km/h
23.12.2011 10:00 2,9 C 82 % 1024,9 hPa 0,3 l/m 0,0 km/h N 0,1 C 2,9 C 1,2 km/h
23.12.2011 11:00 3,5 C 82 % 1024,3 hPa 0,3 l/m 0,1 km/h N 0,7 C 3,5 C 2,8 km/h
23.12.2011 12:00 3,8 C 82 % 1023,6 hPa 0,0 l/m 0,2 km/h N 1,0 C 3,8 C 3,6 km/h
23.12.2011 13:00 4,2 C 81 % 1023,0 hPa 0,0 l/m 0,1 km/h N 1,2 C 4,2 C 2,8 km/h
23.12.2011 14:00 4,3 C 81 % 1022,6 hPa 0,0 l/m 0,1 km/h N 1,4 C 4,3 C 1,2 km/h
23.12.2011 15:00 4,4 C 81 % 1022,5 hPa 0,0 l/m 0,1 km/h N 1,4 C 4,4 C 2,0 km/h
23.12.2011 16:00 4,3 C 81 % 1022,3 hPa 0,0 l/m 0,0 km/h N 1,4 C 4,3 C 0,4 km/h
23.12.2011 17:00 4,1 C 82 % 1022,1 hPa 0,3 l/m 0,0 km/h N 1,2 C 4,1 C 0,8 km/h
23.12.2011 18:00 3,6 C 82 % 1021,7 hPa 0,3 l/m 0,0 km/h N 0,8 C 3,6 C 0,8 km/h
23.12.2011 19:00 3,5 C 81 % 1021,2 hPa 0,0 l/m 0,0 km/h N 0,6 C 3,5 C 1,6 km/h
23.12.2011 20:00 3,5 C 81 % 1020,8 hPa 0,0 l/m 0,0 km/h N 0,5 C 3,5 C 1,2 km/h
23.12.2011 21:00 2,9 C 81 % 1020,5 hPa 0,0 l/m 0,0 km/h N 0,0 C 2,9 C 1,2 km/h
23.12.2011 22:00 2,7 C 81 % 1019,9 hPa 0,0 l/m 0,0 km/h N -0,2 C 2,7 C 0,4 km/h
23.12.2011 23:00 2,9 C 81 % 1019,4 hPa 0,0 l/m 0,0 km/h N -0,1 C 2,9 C 1,6 km/h
24.12.2011 00:00 2,7 C 81 % 1018,5 hPa 0,0 l/m 0,0 km/h N -0,2 C 2,7 C 0,8 km/h
24.12.2011 01:00 2,7 C 81 % 1017,9 hPa 0,0 l/m 0,0 km/h N -0,3 C 2,7 C 0,4 km/h
24.12.2011 02:00 2,4 C 81 % 1017,7 hPa 0,0 l/m 0,0 km/h N -0,5 C 2,4 C 1,2 km/h
24.12.2011 03:00 2,2 C 81 % 1017,1 hPa 0,0 l/m 0,0 km/h N -0,7 C 2,2 C 0,8 km/h
24.12.2011 04:00 2,0 C 81 % 1016,8 hPa 0,0 l/m 0,1 km/h N -0,9 C 2,0 C 0,8 km/h
24.12.2011 05:00 2,0 C 81 % 1016,9 hPa 0,0 l/m 0,0 km/h N -1,0 C 2,0 C 0,0 km/h
24.12.2011 06:00 2,0 C 80 % 1016,7 hPa 0,0 l/m 0,0 km/h N -1,0 C 2,0 C 1,2 km/h
24.12.2011 07:00 1,9 C 80 % 1017,0 hPa 0,0 l/m 0,0 km/h N -1,1 C 1,9 C 1,6 km/h
24.12.2011 08:00 2,0 C 80 % 1017,4 hPa 0,0 l/m 0,1 km/h S-SO -1,1 C 2,0 C 2,0 km/h
24.12.2011 09:00 2,3 C 80 % 1017,7 hPa 0,0 l/m 0,6 km/h N -0,8 C 2,3 C 6,4 km/h
24.12.2011 10:00 3,0 C 79 % 1017,9 hPa 0,0 l/m 0,4 km/h N-NO -0,3 C 3,0 C 4,4 km/h
24.12.2011 11:00 5,1 C 78 % 1017,7 hPa 0,0 l/m 4,4 km/h SW 1,5 C 4,6 C 16,9 km/h
24.12.2011 12:00 8,0 C 81 % 1017,2 hPa 0,3 l/m 12,1 km/h NW 4,9 C 4,2 C 32,6 km/h
24.12.2011 13:00 9,1 C 71 % 1017,3 hPa 0,0 l/m 12,1 km/h NW 4,1 C 5,5 C 35,4 km/h
24.12.2011 14:00 8,2 C 70 % 1017,5 hPa 0,0 l/m 17,2 km/h NW 3,0 C 2,1 C 43,9 km/h
24.12.2011 15:00 7,5 C 71 % 1018,5 hPa 0,0 l/m 15,8 km/h W-NW 2,6 C 1,8 C 39,8 km/h
24.12.2011 16:00 7,2 C 69 % 1019,2 hPa 0,0 l/m 17,5 km/h W 1,9 C 0,8 C 39,4 km/h
24.12.2011 17:00 7,1 C 69 % 1019,6 hPa 0,0 l/m 19,6 km/h N-NW 1,7 C -0,3 C 46,7 km/h
24.12.2011 18:00 6,8 C 68 % 1020,5 hPa 0,0 l/m 18,6 km/h W-NW 1,4 C -0,3 C 46,3 km/h
24.12.2011 19:00 6,4 C 71 % 1021,8 hPa 0,0 l/m 16,2 km/h W-NW 1,4 C 0,2 C 37,8 km/h
24.12.2011 20:00 6,3 C 70 % 1023,1 hPa 0,0 l/m 15,9 km/h NW 1,3 C 0,2 C 40,6 km/h
24.12.2011 21:00 5,9 C 71 % 1024,4 hPa 0,0 l/m 13,5 km/h W-NW 1,2 C 1,0 C 38,7 km/h
24.12.2011 22:00 5,7 C 73 % 1025,4 hPa 0,0 l/m 13,7 km/h NW 1,2 C 0,6 C 35,8 km/h
24.12.2011 23:00 5,3 C 74 % 1026,2 hPa 0,0 l/m 13,5 km/h NW 1,0 C 0,3 C 32,6 km/h
25.12.2011 00:00 4,9 C 74 % 1026,8 hPa 0,0 l/m 12,1 km/h NW 0,7 C 0,7 C 31,0 km/h
25.12.2011 01:00 4,5 C 74 % 1027,6 hPa 0,0 l/m 10,1 km/h NW 0,3 C 1,5 C 26,1 km/h
25.12.2011 02:00 4,2 C 76 % 1028,3 hPa 0,0 l/m 9,2 km/h NW 0,3 C 1,8 C 23,3 km/h
25.12.2011 03:00 4,1 C 76 % 1028,8 hPa 0,0 l/m 9,4 km/h NW 0,3 C 1,6 C 26,9 km/h
25.12.2011 04:00 4,0 C 75 % 1028,9 hPa 0,0 l/m 9,0 km/h NW -0,1 C 1,8 C 24,9 km/h
25.12.2011 05:00 3,6 C 75 % 1029,6 hPa 0,0 l/m 7,3 km/h W-NW -0,4 C 2,4 C 22,1 km/h
25.12.2011 06:00 3,6 C 75 % 1030,4 hPa 0,0 l/m 8,5 km/h W-NW -0,4 C 1,8 C 21,3 km/h
25.12.2011 07:00 4,0 C 70 % 1031,1 hPa 0,0 l/m 7,4 km/h NW -1,0 C 3,0 C 23,3 km/h
25.12.2011 08:00 3,9 C 67 % 1031,8 hPa 0,0 l/m 7,3 km/h W-NW -1,7 C 3,1 C 22,9 km/h
25.12.2011 09:00 4,2 C 68 % 1032,6 hPa 0,0 l/m 7,4 km/h NW -1,2 C 3,3 C 24,9 km/h
25.12.2011 10:00 4,7 C 70 % 1033,2 hPa 0,0 l/m 9,7 km/h W-NW -0,4 C 2,0 C 27,3 km/h
25.12.2011 11:00 5,2 C 65 % 1032,9 hPa 0,0 l/m 11,3 km/h W-NW -0,9 C 1,5 C 27,8 km/h
25.12.2011 12:00 5,6 C 65 % 1032,9 hPa 0,0 l/m 9,9 km/h S-SO -0,6 C 2,8 C 28,2 km/h
25.12.2011 13:00 5,7 C 65 % 1032,9 hPa 0,0 l/m 11,9 km/h W-NW -0,4 C 1,6 C 31,4 km/h
25.12.2011 14:00 5,6 C 65 % 1033,0 hPa 0,0 l/m 7,9 km/h W-NW -0,5 C 4,3 C 23,7 km/h
25.12.2011 15:00 5,0 C 66 % 1033,0 hPa 0,0 l/m 8,1 km/h N-NW -0,7 C 3,5 C 23,3 km/h
25.12.2011 16:00 4,8 C 69 % 1033,3 hPa 0,0 l/m 11,5 km/h W-NW -0,5 C 0,9 C 31,8 km/h
25.12.2011 17:00 4,7 C 70 % 1033,8 hPa 0,0 l/m 11,4 km/h NW -0,3 C 0,8 C 30,2 km/h
25.12.2011 18:00 4,8 C 68 % 1034,0 hPa 0,0 l/m 10,8 km/h W -0,6 C 1,3 C 28,6 km/h
25.12.2011 19:00 5,2 C 67 % 1034,1 hPa 0,0 l/m 11,8 km/h W-NW -0,4 C 1,1 C 32,2 km/h
25.12.2011 20:00 5,1 C 68 % 1034,4 hPa 0,0 l/m 12,2 km/h W -0,3 C 0,8 C 28,5 km/h
25.12.2011 21:00 5,3 C 66 % 1034,9 hPa 0,0 l/m 10,1 km/h W -0,5 C 2,4 C 27,0 km/h
25.12.2011 22:00 5,0 C 72 % 1035,4 hPa 0,0 l/m 9,4 km/h W-SW 0,3 C 2,6 C 26,9 km/h
25.12.2011 23:00 5,2 C 71 % 1035,7 hPa 0,0 l/m 7,3 km/h W-NW 0,4 C 4,5 C 21,3 km/h
Min-Datum _ 20.12.11 20.12.11 20.12.11 - 19.12.11 - 20.12.11 20.12.11 19.12.11
_ Min-Zeit 21:15 14:30 15:00 - 00:00 - 21:15 21:15 01:00
Minimum _ -5,8 C 56 % 1011,8 hPa - 0,0 km/h - -8,7 C -5,8 C 0,0 km/h
Max-Datum _ 24.12.11 22.12.11 25.12.11 21.12.11 24.12.11 - 24.12.11 24.12.11 24.12.11
_ Max-Zeit 13:15 07:30 23:00 21:00 16:45 - 12:30 13:00 14:15
Maximum _ 9,2 C 89 % 1035,7 hPa 0,8 l/m 22,6 km/h
W
- 5,5 C 6,6 C 53,1 km/h
W
Durchschnitt _ 2,1 C 77 % 1020,5 hPa #5,2 l/m 4,6 km/h NW -1,6 C 1,1 C 13,4 km/h